This is the latest recevied weather packets stored in our database for station/object KD9NSC. If no packets are shown the sender has not sent any weather packets the latest 10 day(s).
| Time | Temp. | Humidity | Pressure | Rain* | Wind** | Luminosity | Snow |
|---|---|---|---|---|---|---|---|
| 1777731502 | 11.67° C | 56% | 1022.1 hPa | 0 mm | - | 279 W/m² | - |
| 1777731201 | 12.22° C | 54% | 1022.1 hPa | 0 mm | - | 205 W/m² | - |
| 1777730898 | 12.22° C | 54% | 1022.3 hPa | 0 mm | - | 322 W/m² | - |
| 1777730596 | 11.67° C | 54% | 1022.3 hPa | 0 mm | - | 172 W/m² | - |
| 1777730292 | 11.11° C | 55% | 1022.2 hPa | 0 mm | - | 295 W/m² | - |
| 1777729989 | 11.67° C | 57% | 1021.9 hPa | 0 mm | - | 177 W/m² | - |
| 1777729684 | 10.56° C | 58% | 1022.1 hPa | 0 mm | - | 235 W/m² | - |
| 1777729382 | 11.11° C | 57% | 1021.9 hPa | 0 mm | - | 233 W/m² | - |
| 1777729078 | 10° C | 59% | 1021.9 hPa | 0 mm | - | 210 W/m² | - |
| 1777728775 | 10° C | 58% | 1022 hPa | 0 mm | - | 234 W/m² | - |
| 1777728471 | 9.44° C | 59% | 1021.9 hPa | 0 mm | - | 210 W/m² | - |
| 1777728169 | 9.44° C | 58% | 1021.8 hPa | 0 mm | - | 209 W/m² | - |
| 1777727866 | 10° C | 57% | 1021.8 hPa | 0 mm | - | 176 W/m² | - |
| 1777727563 | 9.44° C | 60% | 1021.9 hPa | 0 mm | - | 90 W/m² | - |
| 1777727260 | 8.33° C | 66% | 1021.8 hPa | 0 mm | - | 89 W/m² | - |
| 1777726957 | 8.33° C | 64% | 1021.9 hPa | 0 mm | - | 85 W/m² | - |
| 1777726654 | 6.67° C | 70% | 1021.8 hPa | 0 mm | - | 142 W/m² | - |
| 1777726352 | 6.11° C | 73% | 1021.7 hPa | 0 mm | - | 107 W/m² | - |
| 1777726048 | 6.11° C | 74% | 1022 hPa | 0 mm | - | 125 W/m² | - |
| 1777725745 | 5.56° C | 75% | 1021.7 hPa | 0 mm | - | 72 W/m² | - |
| 1777725443 | 5° C | 78% | 1021.9 hPa | 0 mm | - | 42 W/m² | - |
| 1777725140 | 3.89° C | 82% | 1021.8 hPa | 0 mm | - | 87 W/m² | - |
| 1777724837 | 3.33° C | 84% | 1021.9 hPa | 0 mm | - | 46 W/m² | - |
| 1777724533 | 2.78° C | 86% | 1021.7 hPa | 0 mm | - | 39 W/m² | - |
| 1777724232 | 2.22° C | 86% | 1021.6 hPa | 0 mm | - | 29 W/m² | - |
* Rain latest hour (hover to see other rain measurements)
** Current wind speed in m/s (hover to see current wind gust speed)